Tjukalinsk, Russia
Current Conditions -  °F | °C
As of 6:00 PM on Thursday 23 Oct 2014 (Local Time) from UNOO Reporting Station
Broken Clouds Broken Clouds  
Wind Chill: 31°   Ceiling: 6600
Heat Index: 37°   Visibility: 5mi
Dew Point: 36°   Wind: 9mph
Humidity: 93%   Direction: 140°SE
Pressure: 29.65"   Gusts: NA
Location:  55.87°N, 72.2°E
Report Text: UNOO 231200Z 14004MPS 8000 SCT033CB BKN066 03/02 Q1004 25810545NOSIG RMK QFE745
Loading
Personal Weather Stations






























Interactive Weather Map
Tropical Storm Tracking
New forecast layout! Learn more

10-Day Weather Forecast

Advertisements
Track Severe Weather on mobile